createdAt,value
2022-11-09T00:00:48.411Z,9.6
2022-11-09T00:01:49.450Z,9.6
2022-11-09T00:02:50.411Z,9.5
2022-11-09T00:03:51.490Z,9.5
2022-11-09T00:04:52.431Z,9.5
2022-11-09T00:05:53.532Z,9.5
2022-11-09T00:06:55.654Z,9.5
2022-11-09T00:07:57.431Z,9.4
2022-11-09T00:09:02.734Z,9.4
2022-11-09T00:10:00.787Z,9.4
2022-11-09T00:11:02.391Z,9.4
2022-11-09T00:12:03.375Z,9.3
2022-11-09T00:13:04.710Z,9.3
2022-11-09T00:14:06.754Z,9.3
2022-11-09T00:15:08.419Z,9.2
2022-11-09T00:16:09.450Z,9.2
2022-11-09T00:17:10.778Z,9.1
2022-11-09T00:18:12.572Z,9.1
2022-11-09T00:19:14.863Z,9.1
2022-11-09T00:20:16.390Z,9.1
2022-11-09T00:21:17.532Z,9.1
2022-11-09T00:22:19.410Z,9.1
2022-11-09T00:23:20.756Z,9.1
2022-11-09T00:24:21.504Z,9.1
2022-11-09T00:25:22.483Z,9.1
2022-11-09T00:26:23.431Z,9.2
2022-11-09T00:27:24.471Z,9.3
2022-11-09T00:28:25.450Z,9.3
2022-11-09T00:29:26.482Z,9.3
2022-11-09T00:30:28.475Z,9.3
2022-11-09T00:31:30.614Z,9.3
2022-11-09T00:32:32.450Z,9.3
2022-11-09T00:33:33.430Z,9.3
2022-11-09T00:34:35.771Z,9.3
2022-11-09T00:35:37.431Z,9.3
2022-11-09T00:36:38.490Z,9.3
2022-11-09T00:37:39.503Z,9.3
2022-11-09T00:38:40.492Z,9.3
2022-11-09T00:39:41.422Z,9.4
2022-11-09T00:40:42.439Z,9.3
2022-11-09T00:41:44.112Z,9.3
2022-11-09T00:42:46.552Z,9.3
2022-11-09T00:43:47.595Z,9.3
2022-11-09T00:44:49.411Z,9.3
2022-11-09T00:45:50.832Z,9.3
2022-11-09T00:46:52.472Z,9.3
2022-11-09T00:47:53.651Z,9.3
2022-11-09T00:48:55.611Z,9.2
2022-11-09T00:49:57.911Z,9.1
2022-11-09T00:50:59.413Z,9.1
2022-11-09T00:52:00.490Z,9
2022-11-09T00:53:02.535Z,9
2022-11-09T00:54:03.593Z,8.9
2022-11-09T00:55:06.091Z,8.9
2022-11-09T00:56:07.498Z,8.9
2022-11-09T00:57:08.432Z,8.9
2022-11-09T00:58:09.412Z,8.9
2022-11-09T00:59:10.531Z,9
2022-11-09T01:00:11.671Z,9
2022-11-09T01:01:13.606Z,9.1
2022-11-09T01:02:14.432Z,9.1
2022-11-09T01:03:15.468Z,9.2
2022-11-09T01:04:16.571Z,9.2
2022-11-09T01:05:18.551Z,9.3
2022-11-09T01:06:19.831Z,9.3
2022-11-09T01:07:21.552Z,9.3
2022-11-09T01:08:22.412Z,9.3
2022-11-09T01:09:23.435Z,9.4
2022-11-09T01:10:24.571Z,9.4
2022-11-09T01:11:25.440Z,9.5
2022-11-09T01:12:26.795Z,9.5
2022-11-09T01:13:28.787Z,9.6
2022-11-09T01:14:30.430Z,9.5
2022-11-09T01:15:32.470Z,9.4
2022-11-09T01:16:34.511Z,9.4
2022-11-09T01:17:37.292Z,9.4
2022-11-09T01:18:38.472Z,9.4
2022-11-09T01:19:39.728Z,9.5
2022-11-09T01:20:41.480Z,9.5
2022-11-09T01:21:43.711Z,9.6
2022-11-09T01:22:45.453Z,9.6
2022-11-09T01:23:47.406Z,9.7
2022-11-09T01:24:48.512Z,9.8
2022-11-09T01:25:49.452Z,9.7
2022-11-09T01:26:50.456Z,9.7
2022-11-09T01:27:51.432Z,9.7
2022-11-09T01:28:52.451Z,9.8
2022-11-09T01:29:53.431Z,9.8
2022-11-09T01:30:54.450Z,9.8
2022-11-09T01:31:55.672Z,9.8
2022-11-09T01:32:57.440Z,9.7
2022-11-09T01:33:58.540Z,9.7
2022-11-09T01:34:59.912Z,9.7
2022-11-09T01:36:01.871Z,9.7
2022-11-09T01:37:03.981Z,9.7
2022-11-09T01:38:05.432Z,9.7
2022-11-09T01:39:06.455Z,9.7
2022-11-09T01:40:07.511Z,9.7
2022-11-09T01:41:08.415Z,9.7
2022-11-09T01:42:09.517Z,9.6
2022-11-09T01:43:11.335Z,9.6
2022-11-09T01:44:12.472Z,9.6
2022-11-09T01:45:13.433Z,9.6
2022-11-09T01:46:14.451Z,9.7
2022-11-09T01:47:15.462Z,9.6
2022-11-09T01:48:17.093Z,9.6
2022-11-09T01:49:18.430Z,9.5
2022-11-09T01:50:19.431Z,9.5
2022-11-09T01:51:20.453Z,9.5
2022-11-09T01:52:21.465Z,9.5
2022-11-09T01:53:22.585Z,9.5
2022-11-09T01:54:23.451Z,9.6
2022-11-09T01:55:24.653Z,9.5
2022-11-09T01:56:26.493Z,9.5
2022-11-09T01:57:27.534Z,9.5
2022-11-09T01:58:28.632Z,9.5
2022-11-09T01:59:30.714Z,9.4
2022-11-09T02:00:32.816Z,9.4
2022-11-09T02:01:34.658Z,9.3
2022-11-09T02:02:35.493Z,9.3
2022-11-09T02:07:01.157Z,9.4
2022-11-09T02:08:02.494Z,9.5
2022-11-09T02:09:04.473Z,9.5
2022-11-09T02:10:05.774Z,9.5
2022-11-09T02:11:07.852Z,9.4
2022-11-09T02:12:09.874Z,9.4
2022-11-09T02:13:11.538Z,9.4
2022-11-09T02:14:12.956Z,9.4
2022-11-09T02:15:14.854Z,9.4
2022-11-09T02:16:16.466Z,9.3
2022-11-09T02:17:17.482Z,9.3
2022-11-09T02:18:18.494Z,9.3
2022-11-09T02:19:19.495Z,9.3
2022-11-09T02:20:20.476Z,9.4
2022-11-09T02:21:21.517Z,9.4
2022-11-09T02:22:22.470Z,9.4
2022-11-09T02:23:23.494Z,9.4
2022-11-09T02:24:24.478Z,9.3
2022-11-09T02:25:25.477Z,9.3
2022-11-09T02:26:26.654Z,9.3
2022-11-09T02:27:28.474Z,9.3
2022-11-09T02:28:29.459Z,9.3
2022-11-09T02:29:30.473Z,9.4
2022-11-09T02:30:31.673Z,9.4
2022-11-09T02:31:33.822Z,9.4
2022-11-09T02:32:35.533Z,9.5
2022-11-09T02:33:36.494Z,9.5
2022-11-09T02:34:37.712Z,9.6
2022-11-09T02:35:39.514Z,9.5
2022-11-09T02:36:40.833Z,9.5
2022-11-09T02:37:42.494Z,9.5
2022-11-09T02:38:43.515Z,9.6
2022-11-09T02:39:44.487Z,9.6
2022-11-09T02:40:45.992Z,9.7
2022-11-09T02:41:47.473Z,9.7
2022-11-09T02:42:48.473Z,9.7
2022-11-09T02:43:49.496Z,9.7
2022-11-09T02:44:50.733Z,9.7
2022-11-09T02:45:52.481Z,9.8
2022-11-09T02:46:53.512Z,9.9
2022-11-09T02:47:54.492Z,10
2022-11-09T02:48:55.520Z,10
2022-11-09T02:49:56.521Z,10
2022-11-09T02:50:57.494Z,10.1
2022-11-09T02:51:58.599Z,10.1
2022-11-09T02:53:00.473Z,10.2
2022-11-09T02:54:01.495Z,10.2
2022-11-09T02:55:02.508Z,10.2
2022-11-09T02:56:03.513Z,10.2
2022-11-09T02:57:04.473Z,10.2
2022-11-09T02:58:05.512Z,10.1
2022-11-09T02:59:06.631Z,10.1
2022-11-09T03:00:08.452Z,10
2022-11-09T03:01:09.869Z,9.9
2022-11-09T03:02:11.600Z,9.9
2022-11-09T03:03:13.515Z,9.9
2022-11-09T03:04:14.496Z,9.9
2022-11-09T03:05:16.573Z,9.9
2022-11-09T03:06:18.814Z,10
2022-11-09T03:07:20.566Z,10
2022-11-09T03:08:21.571Z,10
2022-11-09T03:09:22.713Z,10.1
2022-11-09T03:10:24.560Z,10.1
2022-11-09T03:11:25.472Z,10.1
2022-11-09T03:12:26.551Z,10
2022-11-09T03:13:28.212Z,10
2022-11-09T03:14:29.916Z,10
2022-11-09T03:15:32.973Z,10
2022-11-09T03:16:34.512Z,10.1
2022-11-09T03:17:36.491Z,10.3
2022-11-09T03:18:38.501Z,10.3
2022-11-09T03:19:39.512Z,10.3
2022-11-09T03:20:40.515Z,10.2
2022-11-09T03:21:41.533Z,10.2
2022-11-09T03:22:42.496Z,10.1
2022-11-09T03:23:43.493Z,10
2022-11-09T03:24:44.565Z,10
2022-11-09T03:25:46.513Z,10
2022-11-09T03:26:48.476Z,10
2022-11-09T03:27:50.332Z,10
2022-11-09T03:28:51.553Z,10
2022-11-09T03:29:52.499Z,10.1
2022-11-09T03:30:53.481Z,10.1
2022-11-09T03:31:54.794Z,10.1
2022-11-09T03:32:56.913Z,10.1
2022-11-09T03:33:58.553Z,10.1
2022-11-09T03:34:59.444Z,10.1
2022-11-09T03:36:00.794Z,10
2022-11-09T03:37:02.513Z,10
2022-11-09T03:38:03.688Z,10
2022-11-09T03:39:05.793Z,9.9
2022-11-09T03:40:07.653Z,9.9
2022-11-09T03:41:09.597Z,10
2022-11-09T03:42:11.499Z,10
2022-11-09T03:43:12.852Z,9.9
2022-11-09T03:44:14.751Z,9.8
2022-11-09T03:45:16.577Z,9.8
2022-11-09T03:46:18.496Z,9.9
2022-11-09T03:47:19.513Z,9.9
2022-11-09T03:48:21.233Z,9.9
2022-11-09T03:49:22.937Z,9.9
2022-11-09T03:50:24.573Z,9.8
2022-11-09T03:51:25.834Z,9.8
2022-11-09T03:52:27.604Z,9.7
2022-11-09T03:53:28.541Z,9.6
2022-11-09T03:54:29.796Z,9.5
2022-11-09T03:55:31.894Z,9.5
2022-11-09T03:56:34.118Z,9.3
2022-11-09T03:57:35.534Z,9.2
2022-11-09T03:58:36.517Z,9.2
2022-11-09T03:59:37.532Z,9.1
2022-11-09T04:00:38.581Z,9
2022-11-09T04:01:39.672Z,9
2022-11-09T04:02:41.651Z,9.1
2022-11-09T04:03:44.481Z,9
2022-11-09T04:04:46.556Z,9
2022-11-09T04:05:48.533Z,9
2022-11-09T04:06:49.912Z,9
2022-11-09T04:07:51.573Z,8.9
2022-11-09T04:08:52.554Z,8.9
2022-11-09T04:09:53.582Z,8.8
2022-11-09T04:10:54.562Z,8.7
2022-11-09T04:11:55.778Z,8.7
2022-11-09T04:12:57.601Z,8.7
2022-11-09T04:13:58.881Z,8.7
2022-11-09T04:15:00.515Z,8.6
2022-11-09T04:16:02.729Z,8.6
2022-11-09T04:17:03.513Z,8.5
2022-11-09T04:18:04.534Z,8.5
2022-11-09T04:19:05.554Z,8.4
2022-11-09T04:20:06.554Z,8.4
2022-11-09T04:21:07.534Z,8.3
2022-11-09T04:22:08.553Z,8.4
2022-11-09T04:23:09.573Z,8.3
2022-11-09T04:24:11.572Z,8.2
2022-11-09T04:25:12.513Z,8.2
2022-11-09T04:26:13.793Z,8.3
2022-11-09T04:27:15.553Z,8.2
2022-11-09T04:28:17.513Z,8.2
2022-11-09T04:29:18.535Z,8.2
2022-11-09T04:30:19.753Z,8.2
2022-11-09T04:31:26.925Z,8.2
2022-11-09T04:32:23.701Z,8.2
2022-11-09T04:33:25.815Z,8.2
2022-11-09T04:34:27.954Z,8.2
2022-11-09T04:35:29.611Z,8.2
2022-11-09T04:36:31.537Z,8.1
2022-11-09T04:37:33.573Z,8.1
2022-11-09T04:38:35.552Z,8.1
2022-11-09T04:39:36.618Z,8
2022-11-09T04:40:38.586Z,8
2022-11-09T04:41:39.573Z,8
2022-11-09T04:42:40.760Z,7.9
2022-11-09T04:43:42.716Z,7.9
2022-11-09T04:44:44.714Z,7.8
2022-11-09T04:45:46.574Z,7.7
2022-11-09T04:46:48.607Z,7.7
2022-11-09T04:47:49.534Z,7.6
2022-11-09T04:48:50.553Z,7.7
2022-11-09T04:49:51.856Z,7.7
2022-11-09T04:50:53.553Z,7.8
2022-11-09T04:51:54.793Z,7.7
2022-11-09T04:52:57.013Z,7.6
2022-11-09T04:53:58.634Z,7.6
2022-11-09T04:54:59.908Z,7.6
2022-11-09T04:56:01.613Z,7.6
2022-11-09T04:57:03.993Z,7.6
2022-11-09T04:58:05.554Z,7.6
2022-11-09T04:59:06.554Z,7.6
2022-11-09T05:00:07.834Z,7.7
2022-11-09T05:01:09.593Z,7.6
2022-11-09T05:02:10.628Z,7.6
2022-11-09T05:03:11.534Z,7.7
2022-11-09T05:04:12.635Z,7.7
2022-11-09T05:05:13.882Z,7.7
2022-11-09T05:06:15.890Z,7.7
2022-11-09T05:07:17.613Z,7.7
2022-11-09T05:08:18.516Z,7.7
2022-11-09T05:09:19.535Z,7.7
2022-11-09T05:10:20.585Z,7.7
2022-11-09T05:11:21.694Z,7.8
2022-11-09T05:12:23.621Z,7.8
2022-11-09T05:13:24.554Z,7.8
2022-11-09T05:14:25.562Z,7.7
2022-11-09T05:15:26.553Z,7.7
2022-11-09T05:16:28.193Z,7.7
2022-11-09T05:17:29.592Z,7.7
2022-11-09T05:18:30.694Z,7.7
2022-11-09T05:19:33.476Z,7.6
2022-11-09T05:20:34.890Z,7.5
2022-11-09T05:21:36.636Z,7.3
2022-11-09T05:22:37.594Z,7.2
2022-11-09T05:23:38.697Z,7.2
2022-11-09T05:24:41.336Z,7.2
2022-11-09T05:25:42.599Z,7.3
2022-11-09T05:26:43.613Z,7.4
2022-11-09T05:27:44.587Z,7.5
2022-11-09T05:28:46.033Z,7.5
2022-11-09T05:29:48.013Z,7.6
2022-11-09T05:30:50.255Z,7.6
2022-11-09T05:31:52.630Z,7.6
2022-11-09T05:32:54.078Z,7.6
2022-11-09T05:33:55.574Z,7.7
2022-11-09T05:34:56.554Z,7.7
2022-11-09T05:35:58.895Z,7.7
2022-11-09T05:37:03.407Z,7.7
2022-11-09T05:38:01.610Z,7.7
2022-11-09T05:39:02.574Z,7.7
2022-11-09T05:40:03.654Z,7.7
2022-11-09T05:41:04.575Z,7.7
2022-11-09T05:42:05.595Z,7.7
2022-11-09T05:43:06.573Z,7.7
2022-11-09T05:44:08.083Z,7.7
2022-11-09T05:45:35.942Z,7.7
2022-11-09T05:46:10.637Z,7.7
2022-11-09T05:47:11.602Z,7.7
2022-11-09T05:48:12.598Z,7.7
2022-11-09T05:49:13.576Z,7.7
2022-11-09T05:50:14.627Z,7.7
2022-11-09T05:51:15.633Z,7.7
2022-11-09T05:52:18.213Z,7.7
2022-11-09T05:53:20.119Z,7.7
2022-11-09T05:54:21.574Z,7.7
2022-11-09T05:55:22.595Z,7.6
2022-11-09T05:56:23.593Z,7.6
2022-11-09T05:57:25.396Z,7.6
2022-11-09T05:58:26.593Z,7.6
2022-11-09T05:59:27.792Z,7.6
2022-11-09T06:00:29.954Z,7.6
2022-11-09T06:01:31.616Z,7.5
2022-11-09T06:02:33.579Z,7.5
2022-11-09T06:03:35.623Z,7.5
2022-11-09T06:04:36.614Z,7.5
2022-11-09T06:05:37.630Z,7.5
2022-11-09T06:06:38.803Z,7.5
2022-11-09T06:07:40.864Z,7.5
2022-11-09T06:08:43.462Z,7.5
2022-11-09T06:09:44.595Z,7.5
2022-11-09T06:10:45.639Z,7.5
2022-11-09T06:11:47.664Z,7.5
2022-11-09T06:12:49.554Z,7.5
2022-11-09T06:13:50.577Z,7.4
2022-11-09T06:14:51.633Z,7.4
2022-11-09T06:15:52.576Z,7.4
2022-11-09T06:16:53.694Z,7.4
2022-11-09T06:17:55.134Z,7.4
2022-11-09T06:18:56.662Z,7.4
2022-11-09T06:19:57.935Z,7.4
2022-11-09T06:21:00.656Z,7.3
2022-11-09T06:22:01.592Z,7.4
2022-11-09T06:23:03.722Z,7.4
2022-11-09T06:24:04.214Z,7.4
2022-11-09T06:25:05.703Z,7.4
2022-11-09T06:26:07.675Z,7.4
2022-11-09T06:27:09.834Z,7.4
2022-11-09T06:28:11.615Z,7.4
2022-11-09T06:29:12.996Z,7.5
2022-11-09T06:30:14.642Z,7.5
2022-11-09T06:31:15.715Z,7.5
2022-11-09T06:32:17.914Z,7.5
2022-11-09T06:33:20.609Z,7.4
2022-11-09T06:34:21.657Z,7.4
2022-11-09T06:35:22.653Z,7.4
2022-11-09T06:36:24.098Z,7.4
2022-11-09T06:37:26.294Z,7.4
2022-11-09T06:38:27.614Z,7.4
2022-11-09T06:39:28.695Z,7.4
2022-11-09T06:40:29.809Z,7.3
2022-11-09T06:41:33.313Z,7.3
2022-11-09T06:42:34.898Z,7.3
2022-11-09T06:43:36.814Z,7.3
2022-11-09T06:44:38.675Z,7.3
2022-11-09T06:45:39.742Z,7.3
2022-11-09T06:46:41.602Z,7.3
2022-11-09T06:47:42.721Z,7.3
2022-11-09T06:48:48.351Z,7.2
2022-11-09T06:49:47.780Z,7.2
2022-11-09T06:50:49.575Z,7.3
2022-11-09T06:51:50.734Z,7.3
2022-11-09T06:52:51.698Z,7.3
2022-11-09T06:53:52.629Z,7.3
2022-11-09T06:54:53.637Z,7.3
2022-11-09T06:55:54.813Z,7.3
2022-11-09T06:56:57.853Z,7.3
2022-11-09T06:57:59.656Z,7.3
2022-11-09T06:59:00.653Z,7.3
2022-11-09T07:00:01.762Z,7.4
2022-11-09T07:01:03.749Z,7.5
2022-11-09T07:02:06.233Z,7.5
2022-11-09T07:03:07.723Z,7.5
2022-11-09T07:04:09.794Z,7.5
2022-11-09T07:05:11.798Z,7.5
2022-11-09T07:06:13.693Z,7.5
2022-11-09T07:07:16.357Z,7.6
2022-11-09T07:08:17.893Z,7.6
2022-11-09T07:09:19.837Z,7.6
2022-11-09T07:10:21.735Z,7.7
2022-11-09T07:11:24.099Z,7.7
2022-11-09T07:12:26.010Z,7.7
2022-11-09T07:13:27.753Z,7.8
2022-11-09T07:14:29.790Z,7.8
2022-11-09T07:15:31.714Z,7.9
2022-11-09T07:16:34.002Z,7.9
2022-11-09T07:17:35.759Z,8
2022-11-09T07:18:37.647Z,8.1
2022-11-09T07:19:39.681Z,8.2
2022-11-09T07:20:40.686Z,8.2
2022-11-09T07:21:41.667Z,8.2
2022-11-09T07:22:42.673Z,8.2
2022-11-09T07:23:43.740Z,8.2
2022-11-09T07:24:45.033Z,8.3
2022-11-09T07:25:46.654Z,8.3
2022-11-09T07:26:49.254Z,8.3
2022-11-09T07:27:50.754Z,8.3
2022-11-09T07:28:51.699Z,8.3
2022-11-09T07:29:52.755Z,8.4
2022-11-09T07:30:55.310Z,8.4
2022-11-09T07:31:56.782Z,8.4
2022-11-09T07:33:14.105Z,8.5
2022-11-09T07:33:59.735Z,8.5
2022-11-09T07:35:01.720Z,8.6
2022-11-09T07:36:03.825Z,8.6
2022-11-09T07:37:05.855Z,8.6
2022-11-09T07:38:08.896Z,8.7
2022-11-09T07:39:10.954Z,8.7
2022-11-09T07:40:13.255Z,8.7
2022-11-09T07:41:15.276Z,8.7
2022-11-09T07:42:16.736Z,8.6
2022-11-09T07:43:19.128Z,8.6
2022-11-09T07:44:19.634Z,8.6
2022-11-09T07:45:20.636Z,8.7
2022-11-09T07:46:21.717Z,8.8
2022-11-09T07:47:22.735Z,8.8
2022-11-09T07:48:24.764Z,8.9
2022-11-09T07:49:26.735Z,9
2022-11-09T07:50:28.792Z,9.1
2022-11-09T07:51:30.786Z,9.3
2022-11-09T07:52:32.685Z,9.6
2022-11-09T07:53:33.675Z,9.7
2022-11-09T07:54:35.195Z,9.9
2022-11-09T07:55:37.155Z,10.2
2022-11-09T07:56:38.720Z,10.4
2022-11-09T07:57:39.734Z,10.6
2022-11-09T07:58:41.756Z,10.7
2022-11-09T07:59:42.700Z,10.9
2022-11-09T08:00:45.343Z,11.1
2022-11-09T08:01:46.866Z,11.3
2022-11-09T08:02:48.693Z,11.5
2022-11-09T08:03:49.774Z,11.7
2022-11-09T08:04:51.720Z,11.8
2022-11-09T08:05:53.553Z,11.9
2022-11-09T08:06:54.807Z,11.8
2022-11-09T08:07:56.996Z,11.9
2022-11-09T08:08:59.003Z,11.9
2022-11-09T08:10:00.974Z,11.9
2022-11-09T08:11:02.816Z,12
2022-11-09T08:12:04.668Z,12.1
2022-11-09T08:13:05.979Z,12.1
2022-11-09T08:14:07.974Z,12.2
2022-11-09T08:15:09.793Z,12.3
2022-11-09T08:16:10.773Z,12.4
2022-11-09T08:17:12.713Z,12.5
2022-11-09T08:18:13.973Z,12.6
2022-11-09T08:19:16.360Z,12.7
2022-11-09T08:20:18.077Z,12.9
2022-11-09T08:21:19.712Z,13.1
2022-11-09T08:22:20.737Z,13.3
2022-11-09T08:23:21.756Z,13.4
2022-11-09T08:24:23.052Z,13.4
2022-11-09T08:25:24.814Z,13.4
2022-11-09T08:26:26.772Z,13.5
2022-11-09T08:27:28.695Z,13.7
2022-11-09T08:28:29.812Z,13.8
2022-11-09T08:29:32.333Z,13.9
2022-11-09T08:30:34.102Z,14.2
2022-11-09T08:31:35.712Z,14.2
2022-11-09T08:32:36.693Z,14.3
2022-11-09T08:33:38.373Z,14.4
2022-11-09T08:34:39.737Z,14.3
2022-11-09T08:35:41.853Z,14.2
2022-11-09T08:36:43.721Z,14
2022-11-09T08:37:44.877Z,13.8
2022-11-09T08:38:46.712Z,13.7
2022-11-09T08:39:47.682Z,13.8
2022-11-09T08:40:49.141Z,13.7
2022-11-09T08:41:50.814Z,13.6
2022-11-09T08:42:53.193Z,13.7
2022-11-09T08:43:55.521Z,13.7
2022-11-09T08:44:56.720Z,13.7
2022-11-09T08:45:57.794Z,13.7
2022-11-09T08:46:59.739Z,13.6
2022-11-09T08:48:02.073Z,13.6
2022-11-09T08:49:04.253Z,13.6
2022-11-09T08:50:05.753Z,13.6
2022-11-09T08:51:06.851Z,13.5
2022-11-09T08:52:08.772Z,13.5
2022-11-09T08:53:10.796Z,13.4
2022-11-09T08:54:11.834Z,13.4
2022-11-09T08:55:13.779Z,13.3
2022-11-09T08:56:14.796Z,13.2
2022-11-09T08:57:16.716Z,13.1
2022-11-09T08:58:17.961Z,13.2
2022-11-09T08:59:19.897Z,13.2
2022-11-09T09:00:21.791Z,13.3
2022-11-09T09:01:23.798Z,13.2
2022-11-09T09:02:25.035Z,13.3
2022-11-09T09:03:27.034Z,13.4
2022-11-09T09:04:28.792Z,13.4
2022-11-09T09:05:30.791Z,13.4
2022-11-09T09:06:33.022Z,13.4
2022-11-09T09:07:34.752Z,13.3
2022-11-09T09:08:36.101Z,13.2
2022-11-09T09:09:37.742Z,13.2
2022-11-09T09:10:38.792Z,13.3
2022-11-09T09:11:40.887Z,13.3
2022-11-09T09:12:43.137Z,13.3
2022-11-09T09:13:44.711Z,13.3
2022-11-09T09:14:45.734Z,13.3
2022-11-09T09:15:47.084Z,13.3
2022-11-09T09:16:48.732Z,13.3
2022-11-09T09:17:49.799Z,13.3
2022-11-09T09:18:50.742Z,13.4
2022-11-09T09:19:51.751Z,13.4
2022-11-09T09:20:52.740Z,13.5
2022-11-09T09:21:54.911Z,13.6
2022-11-09T09:22:57.121Z,13.6
2022-11-09T09:23:59.124Z,13.7
2022-11-09T09:25:00.761Z,13.8
2022-11-09T09:26:02.287Z,13.8
2022-11-09T09:27:04.391Z,13.8
2022-11-09T09:28:05.822Z,13.9
2022-11-09T09:29:07.692Z,13.8
2022-11-09T09:30:08.813Z,13.7
2022-11-09T09:31:14.290Z,13.7
2022-11-09T09:32:12.833Z,13.7
2022-11-09T09:33:13.752Z,13.7
2022-11-09T09:34:14.801Z,13.7
2022-11-09T09:35:16.695Z,13.8
2022-11-09T09:36:19.172Z,13.8
2022-11-09T09:37:21.051Z,13.8
2022-11-09T09:38:22.946Z,13.9
2022-11-09T09:39:23.800Z,13.8
2022-11-09T09:40:25.981Z,13.8
2022-11-09T09:41:27.732Z,13.8
2022-11-09T09:42:28.946Z,13.7
2022-11-09T09:43:30.932Z,13.7
2022-11-09T09:44:33.293Z,13.8
2022-11-09T09:45:34.783Z,13.6
2022-11-09T09:46:35.771Z,13.5
2022-11-09T09:47:36.833Z,13.6
2022-11-09T09:48:39.276Z,13.6
2022-11-09T09:49:41.126Z,13.7
2022-11-09T09:50:43.100Z,13.8
2022-11-09T09:51:44.933Z,13.9
2022-11-09T09:52:59.268Z,13.9
2022-11-09T09:53:48.771Z,13.9
2022-11-09T09:54:52.113Z,13.9
2022-11-09T09:55:52.774Z,14
2022-11-09T09:56:54.174Z,14
2022-11-09T09:57:55.833Z,14
2022-11-09T09:58:56.840Z,14.1
2022-11-09T10:00:00.013Z,14.2
2022-11-09T10:01:02.311Z,14.1
2022-11-09T10:02:04.333Z,14.1
2022-11-09T10:03:05.812Z,14.1
2022-11-09T10:04:06.867Z,14.1
2022-11-09T10:05:07.853Z,14.1
2022-11-09T10:06:09.814Z,14.1
2022-11-09T10:07:11.972Z,14
2022-11-09T10:08:14.720Z,14
2022-11-09T10:09:15.759Z,13.9
2022-11-09T10:10:17.050Z,14
2022-11-09T10:11:19.132Z,14
2022-11-09T10:12:20.736Z,14.1
2022-11-09T10:13:22.172Z,14.1
2022-11-09T10:14:24.173Z,14.1
2022-11-09T10:15:25.852Z,14.1
2022-11-09T10:16:27.881Z,14.1
2022-11-09T10:17:29.812Z,14.1
2022-11-09T10:18:31.807Z,14
2022-11-09T10:19:34.142Z,14
2022-11-09T10:20:35.998Z,14.1
2022-11-09T10:21:37.996Z,14.1
2022-11-09T10:22:39.804Z,14.1
2022-11-09T10:23:42.984Z,14.1
2022-11-09T10:25:12.170Z,14.1
2022-11-09T10:26:03.405Z,14.1
2022-11-09T10:26:49.892Z,14
2022-11-09T10:27:51.815Z,14.1
2022-11-09T10:29:14.844Z,14.1
2022-11-09T10:29:54.812Z,14.3
2022-11-09T10:30:57.079Z,14.3
2022-11-09T10:31:58.872Z,14.3
2022-11-09T10:33:00.775Z,14.4
2022-11-09T10:34:01.811Z,14.4
2022-11-09T10:35:03.522Z,14.4
2022-11-09T10:36:08.116Z,14.4
2022-11-09T10:37:05.795Z,14.2
2022-11-09T10:38:06.738Z,14.1
2022-11-09T10:39:07.746Z,14.1
2022-11-09T10:40:08.700Z,14.2
2022-11-09T10:41:09.809Z,14.2
2022-11-09T10:42:10.792Z,14.4
2022-11-09T10:43:12.231Z,14.4
2022-11-09T10:44:17.267Z,14.4
2022-11-09T10:45:16.452Z,14.5
2022-11-09T10:46:17.811Z,14.5
2022-11-09T10:47:19.563Z,14.6
2022-11-09T10:48:21.246Z,14.7
2022-11-09T10:49:22.772Z,14.7
2022-11-09T10:50:24.312Z,14.7
2022-11-09T10:51:25.819Z,14.8
2022-11-09T10:52:29.092Z,14.8
2022-11-09T10:53:30.812Z,14.7
2022-11-09T10:54:31.769Z,14.7
2022-11-09T10:55:32.792Z,14.6
2022-11-09T10:56:41.845Z,14.6
2022-11-09T10:57:35.731Z,14.7
2022-11-09T10:58:37.051Z,14.8
2022-11-09T10:59:38.773Z,14.7
2022-11-09T11:00:40.105Z,14.7
2022-11-09T11:01:42.585Z,14.7
2022-11-09T11:02:43.932Z,14.7
2022-11-09T11:03:46.257Z,14.8
2022-11-09T11:04:47.853Z,14.7
2022-11-09T11:05:48.913Z,14.7
2022-11-09T11:06:50.868Z,14.8
2022-11-09T11:07:51.773Z,14.8
2022-11-09T11:08:52.853Z,14.9
2022-11-09T11:09:53.917Z,15
2022-11-09T11:11:06.819Z,15.1
2022-11-09T11:11:56.856Z,15.3
2022-11-09T11:12:58.177Z,15.6
2022-11-09T11:14:00.232Z,15.8
2022-11-09T11:15:01.872Z,16.1
2022-11-09T11:16:03.813Z,16.3
2022-11-09T11:17:04.832Z,16.5
2022-11-09T11:18:05.834Z,16.6
2022-11-09T11:19:07.293Z,16.8
2022-11-09T11:20:09.160Z,16.9
2022-11-09T11:21:13.826Z,17.2
2022-11-09T11:22:12.852Z,17.3
2022-11-09T11:23:15.052Z,17.4
2022-11-09T11:24:16.837Z,17.6
2022-11-09T11:25:17.837Z,17.8
2022-11-09T11:26:19.799Z,17.8
2022-11-09T11:27:21.157Z,17.8
2022-11-09T11:28:22.805Z,17.9
2022-11-09T11:29:23.872Z,17.9
2022-11-09T11:30:24.836Z,18
2022-11-09T11:31:26.374Z,18.1
2022-11-09T11:32:28.797Z,18.2
2022-11-09T11:33:29.794Z,18.4
2022-11-09T11:34:53.786Z,18.3
2022-11-09T11:35:32.792Z,18.2
2022-11-09T11:36:34.331Z,18.4
2022-11-09T11:37:36.391Z,18.4
2022-11-09T11:38:38.472Z,18.4
2022-11-09T11:39:39.997Z,18.5
2022-11-09T11:40:42.352Z,18.6
2022-11-09T11:41:44.239Z,18.7
2022-11-09T11:42:46.106Z,18.8
2022-11-09T11:43:47.940Z,18.9
2022-11-09T11:44:56.837Z,18.9
2022-11-09T11:45:50.872Z,18.8
2022-11-09T11:46:52.553Z,18.8
2022-11-09T11:47:53.933Z,18.8
2022-11-09T11:48:55.813Z,18.8
2022-11-09T11:49:57.829Z,18.8
2022-11-09T11:50:58.957Z,18.8
2022-11-09T11:52:01.036Z,18.6
2022-11-09T11:53:03.553Z,18.3
2022-11-09T11:54:04.793Z,18
2022-11-09T11:55:05.874Z,17.7
2022-11-09T11:56:07.874Z,17.5
2022-11-09T11:57:09.712Z,17.3
2022-11-09T11:58:11.126Z,17.1
2022-11-09T11:59:13.113Z,16.9
2022-11-09T12:00:15.015Z,16.8
2022-11-09T12:01:16.833Z,16.7
2022-11-09T12:02:19.251Z,16.7
2022-11-09T12:03:21.138Z,16.7
2022-11-09T12:04:21.833Z,16.8
2022-11-09T12:05:22.853Z,17
2022-11-09T12:06:23.993Z,17.1
2022-11-09T12:07:25.991Z,17.3
2022-11-09T12:08:28.356Z,17.3
2022-11-09T12:09:30.161Z,17.2
2022-11-09T12:10:32.084Z,17.2
2022-11-09T12:11:34.315Z,17.1
2022-11-09T12:12:35.815Z,17.1
2022-11-09T12:13:36.936Z,17
2022-11-09T12:14:38.895Z,17
2022-11-09T12:15:40.855Z,16.9
2022-11-09T12:16:42.853Z,16.8
2022-11-09T12:17:44.255Z,16.7
2022-11-09T12:18:45.933Z,16.5
2022-11-09T12:19:47.795Z,16.4
2022-11-09T12:20:52.276Z,16.1
2022-11-09T12:21:53.078Z,16
2022-11-09T12:22:55.022Z,15.9
2022-11-09T12:23:57.362Z,15.8
2022-11-09T12:24:58.906Z,15.6
2022-11-09T12:26:00.867Z,15.3
2022-11-09T12:27:18.249Z,15.2
2022-11-09T12:28:03.855Z,15.1
2022-11-09T12:29:06.220Z,15.1
2022-11-09T12:30:08.493Z,15
2022-11-09T12:31:10.060Z,15
2022-11-09T12:32:12.464Z,15.1
2022-11-09T12:33:14.054Z,15.2
2022-11-09T12:34:17.470Z,15.2
2022-11-09T12:35:19.598Z,15.3
2022-11-09T12:36:21.253Z,15.4
2022-11-09T12:37:22.882Z,15.5
2022-11-09T12:38:24.923Z,15.6
2022-11-09T12:39:26.893Z,15.7
2022-11-09T12:40:28.798Z,15.9
2022-11-09T12:41:30.035Z,15.9
2022-11-09T12:42:31.854Z,16
2022-11-09T12:43:32.914Z,16.1
2022-11-09T12:44:35.427Z,16.1
2022-11-09T12:45:37.473Z,16
2022-11-09T12:46:38.895Z,15.8
2022-11-09T12:47:40.839Z,15.8
2022-11-09T12:48:42.377Z,15.8
2022-11-09T12:49:44.134Z,15.9
2022-11-09T12:50:45.862Z,15.8
2022-11-09T12:51:47.917Z,15.9
2022-11-09T12:52:49.898Z,15.9
2022-11-09T12:53:51.854Z,16
2022-11-09T12:54:52.814Z,16
2022-11-09T12:55:53.975Z,16.1
2022-11-09T12:56:56.575Z,16.3
2022-11-09T12:58:00.827Z,16.4
2022-11-09T12:59:00.377Z,16.5
2022-11-09T13:00:02.326Z,16.6
2022-11-09T13:01:05.495Z,16.7
2022-11-09T13:02:06.999Z,16.7
2022-11-09T13:03:08.864Z,16.6
2022-11-09T13:04:11.064Z,16.6
2022-11-09T13:05:13.294Z,16.7
2022-11-09T13:06:16.095Z,16.9
2022-11-09T13:07:17.896Z,16.8
2022-11-09T13:08:18.854Z,16.8
2022-11-09T13:09:20.875Z,16.8
2022-11-09T13:10:21.916Z,16.9
2022-11-09T13:11:22.876Z,17
2022-11-09T13:12:23.855Z,17.1
2022-11-09T13:13:25.894Z,17
2022-11-09T13:14:26.866Z,16.9
2022-11-09T13:15:28.035Z,16.7
2022-11-09T13:16:29.899Z,16.6
2022-11-09T13:17:31.928Z,16.7
2022-11-09T13:18:35.912Z,16.7
2022-11-09T13:19:35.941Z,16.8
2022-11-09T13:20:54.413Z,16.9
2022-11-09T13:21:38.849Z,16.9
2022-11-09T13:22:39.858Z,16.9
2022-11-09T13:24:00.435Z,16.8
2022-11-09T13:24:43.090Z,16.7
2022-11-09T13:25:44.877Z,16.6
2022-11-09T13:26:45.879Z,16.3
2022-11-09T13:27:46.990Z,16.1
2022-11-09T13:28:49.562Z,15.9
2022-11-09T13:29:56.255Z,15.5
2022-11-09T13:30:54.034Z,15.4
2022-11-09T13:31:55.898Z,15.2
2022-11-09T13:32:56.936Z,15.1
2022-11-09T13:33:57.929Z,14.9
2022-11-09T13:34:58.898Z,14.7
2022-11-09T13:36:01.577Z,14.5
2022-11-09T13:37:03.099Z,14.3
2022-11-09T13:38:09.729Z,14.3
2022-11-09T13:39:06.897Z,14.1
2022-11-09T13:40:08.898Z,14
2022-11-09T13:41:10.083Z,14
2022-11-09T13:42:12.850Z,13.8
2022-11-09T13:43:14.919Z,13.8
2022-11-09T13:44:17.867Z,13.6
2022-11-09T13:45:18.926Z,13.6
2022-11-09T13:46:19.985Z,13.6
2022-11-09T13:47:20.957Z,13.6
2022-11-09T13:48:23.368Z,13.6
2022-11-09T13:49:25.287Z,13.5
2022-11-09T13:50:26.947Z,13.6
2022-11-09T13:51:27.957Z,13.6
2022-11-09T13:52:29.949Z,13.5
2022-11-09T13:53:32.686Z,13.5
2022-11-09T13:54:33.889Z,13.5
2022-11-09T13:55:34.958Z,13.5
2022-11-09T13:56:36.580Z,13.6
2022-11-09T13:57:38.477Z,13.6
2022-11-09T13:58:40.118Z,13.6
2022-11-09T13:59:41.940Z,13.6
2022-11-09T14:00:44.009Z,13.5
2022-11-09T14:01:46.634Z,13.5